Saint Charles, Arkansas
Current Conditions -  °F | °C
As of 8:15 PM on Friday 31 Oct 2014 (Local Time) from KSGT Reporting Station
Clear Clear  
Wind Chill: 40°   Ceiling: Unl
Heat Index: 46°   Visibility: 10mi
Dew Point: 25°   Wind: 14mph
Humidity: 43%   Direction: 360°N
Pressure: 30.32"   Gusts: NA
Location:  34.37°N, 91.14°W
Report Text: KSGT 010115Z AUTO 36012KT 10SM CLR 08/M04 A3032 RMK AO1
Loading
Personal Weather Stations






























Interactive Weather Map
Tropical Storm Tracking
New forecast layout! Learn more

10-Day Weather Forecast

Advertisements
Track Severe Weather on mobile